Loachapoka, Alabama
Current Conditions -  °F | °C
As of 8:55 AM on Saturday 01 Nov 2014 (Local Time) from KAUO Reporting Station
Clear Clear  
Wind Chill: -2°   Ceiling: Unl
Heat Index:   Visibility: 10mi
Dew Point: -4°   Wind: 15mph
Humidity: 60%   Direction: 320°NW
Pressure: 30.14"   Gusts: 29mph
Location:  32.6°N, 85.59°W
Report Text: KAUO 011355Z AUTO 32013G25KT 10SM CLR 03/M04 A3014 RMK AO1
Loading
Personal Weather Stations






























Interactive Weather Map
Tropical Storm Tracking
New forecast layout! Learn more

10-Day Weather Forecast

Advertisements
Track Severe Weather on mobile